Time;durP1;ratioP1;P1;durP2;ratioP2;P2;SDS_P1;SDS_P2;PMS_P1;PMS_P2;Temp;Humidity;BMP_temperature;BMP_pressure;BME280_temperature;BME280_humidity;BME280_pressure;Samples;Min_cycle;Max_cycle;Signal;HPM_P1;HPM_P2
2022/10/03 00:00:09;;;;;;;7.95;0.90;;;9.80;99.90;;;;;;5028770;28;20037;-79
2022/10/03 00:02:55;;;;;;;7.82;1.10;;;9.90;99.90;;;;;;5044878;28;20497;-78
2022/10/03 00:05:38;;;;;;;7.20;1.23;;;9.90;99.90;;;;;;5030348;28;20079;-79
2022/10/03 00:08:25;;;;;;;8.50;1.02;;;9.80;99.90;;;;;;5044919;28;20116;-80
2022/10/03 00:11:15;;;;;;;7.35;0.98;;;9.90;99.90;;;;;;5030306;28;20025;-79
2022/10/03 00:13:59;;;;;;;6.63;1.15;;;9.90;99.90;;;;;;5037796;28;20618;-78
2022/10/03 00:16:45;;;;;;;6.15;1.17;;;9.90;99.90;;;;;;5029111;28;20053;-78
2022/10/03 00:19:18;;;;;;;7.18;1.35;;;9.80;99.90;;;;;;5044500;28;20416;-78
2022/10/03 00:22:04;;;;;;;6.28;1.33;;;9.70;99.90;;;;;;5045337;28;20042;-78
2022/10/03 00:24:48;;;;;;;8.30;1.10;;;9.70;99.90;;;;;;5011248;28;20036;-79
2022/10/03 00:27:32;;;;;;;6.57;1.00;;;9.80;99.90;;;;;;5011311;28;20021;-78
2022/10/03 00:30:17;;;;;;;4.65;0.70;;;9.70;99.90;;;;;;5030173;28;20028;-80
2022/10/03 00:33:16;;;;;;;8.45;1.30;;;9.80;99.90;;;;;;5033842;28;20036;-78
2022/10/03 00:35:42;;;;;;;7.35;1.00;;;9.70;99.90;;;;;;5045123;28;20076;-79
2022/10/03 00:38:27;;;;;;;3.28;0.73;;;9.70;99.90;;;;;;5033016;28;20242;-80
2022/10/03 00:41:23;;;;;;;6.50;0.80;;;9.60;99.90;;;;;;5045090;28;20053;-78
2022/10/03 00:44:23;;;;;;;7.05;0.90;;;9.50;99.90;;;;;;5027869;28;20076;-79
2022/10/03 00:47:14;;;;;;;5.05;0.70;;;9.50;99.90;;;;;;5034523;28;20368;-79
2022/10/03 00:50:06;;;;;;;9.50;1.00;;;9.60;99.90;;;;;;5029733;28;20029;-79
2022/10/03 00:52:50;;;;;;;8.00;0.80;;;9.50;99.90;;;;;;5024747;28;20056;-78
2022/10/03 00:55:34;;;;;;;5.03;0.85;;;9.50;99.90;;;;;;5012932;28;20033;-78
2022/10/03 00:58:34;;;;;;;6.45;0.80;;;9.50;99.90;;;;;;5027710;28;20029;-78
2022/10/03 01:01:27;;;;;;;6.65;0.98;;;9.50;99.90;;;;;;5028972;28;20034;-78
2022/10/03 01:04:32;;;;;;;4.47;1.05;;;9.50;99.90;;;;;;5028636;28;20026;-79
2022/10/03 01:07:08;;;;;;;5.40;0.85;;;9.40;99.90;;;;;;5029066;28;20033;-79
2022/10/03 01:09:59;;;;;;;8.00;0.95;;;9.40;99.90;;;;;;5042865;28;20094;-78
2022/10/03 01:13:02;;;;;;;5.55;0.80;;;9.40;99.90;;;;;;5027665;28;20025;-78
2022/10/03 01:15:50;;;;;;;4.63;1.00;;;9.40;99.90;;;;;;5032247;28;20128;-77
2022/10/03 01:18:51;;;;;;;7.38;1.23;;;9.40;99.90;;;;;;5028874;28;20171;-79
2022/10/03 01:21:25;;;;;;;7.68;0.82;;;9.30;99.90;;;;;;5027004;28;20038;-78
2022/10/03 01:24:15;;;;;;;6.50;0.75;;;9.30;99.90;;;;;;5044176;28;20466;-79
2022/10/03 01:26:55;;;;;;;;;;;9.30;99.90;;;;;;5044123;28;20033;-78
2022/10/03 01:32:59;;;;;;;5.35;0.70;;;9.10;99.90;;;;;;5042988;28;20080;-78
2022/10/03 01:35:34;;;;;;;7.15;0.50;;;9.10;99.90;;;;;;5025752;28;20045;-78
2022/10/03 01:38:07;;;;;;;4.68;0.98;;;9.20;99.90;;;;;;5032529;28;20036;-78
2022/10/03 01:40:41;;;;;;;2.65;0.50;;;9.00;99.90;;;;;;5027775;28;20026;-79
2022/10/03 01:43:10;;;;;;;2.85;0.40;;;8.90;99.90;;;;;;5028693;28;20177;-78
2022/10/03 01:45:54;;;;;;;1.88;0.40;;;8.90;99.90;;;;;;5028775;28;20033;-79
2022/10/03 01:48:35;;;;;;;5.30;0.45;;;8.80;99.90;;;;;;5032125;28;20083;-77
2022/10/03 01:51:32;;;;;;;1.23;0.32;;;8.80;99.90;;;;;;5027439;28;20052;-78
2022/10/03 01:54:16;;;;;;;3.88;0.50;;;8.80;99.90;;;;;;5022480;28;20529;-78
2022/10/03 01:56:57;;;;;;;3.13;0.50;;;8.80;99.90;;;;;;5028306;28;20036;-79
2022/10/03 01:59:56;;;;;;;1.50;0.40;;;8.80;99.90;;;;;;5027874;28;20034;-78
2022/10/03 02:02:28;;;;;;;3.00;0.40;;;8.80;99.90;;;;;;5030158;28;20033;-78
2022/10/03 02:05:05;;;;;;;1.58;0.50;;;8.70;99.90;;;;;;5030007;28;20057;-78
2022/10/03 02:07:54;;;;;;;2.75;0.50;;;8.70;99.90;;;;;;5026130;28;20029;-78
2022/10/03 02:10:44;;;;;;;4.63;0.43;;;8.60;99.90;;;;;;5008700;28;20053;-79
2022/10/03 02:13:35;;;;;;;4.43;0.40;;;8.60;99.90;;;;;;5026196;28;20032;-78
2022/10/03 02:16:06;;;;;;;2.65;0.50;;;8.60;99.90;;;;;;5009945;28;20061;-78
2022/10/03 02:18:57;;;;;;;2.42;0.40;;;8.50;99.90;;;;;;5008533;28;20029;-79
2022/10/03 02:21:26;;;;;;;2.83;0.50;;;8.40;99.90;;;;;;5025821;28;20115;-79
2022/10/03 02:24:26;;;;;;;3.22;0.50;;;8.40;99.90;;;;;;5027405;28;20108;-79
2022/10/03 02:27:19;;;;;;;3.63;0.43;;;8.40;99.90;;;;;;5025272;28;20038;-78
2022/10/03 02:30:00;;;;;;;1.55;0.40;;;8.40;99.90;;;;;;5027516;28;20025;-78
2022/10/03 02:32:35;;;;;;;1.90;0.40;;;8.40;99.90;;;;;;5026668;28;20037;-79
2022/10/03 02:35:10;;;;;;;3.22;0.45;;;8.30;99.90;;;;;;5042946;28;20045;-79
2022/10/03 02:37:45;;;;;;;3.80;0.47;;;8.30;99.90;;;;;;5027518;28;20068;-79
2022/10/03 02:40:40;;;;;;;2.88;0.50;;;8.30;99.90;;;;;;5042440;28;20108;-79
2022/10/03 02:43:52;;;;;;;1.95;0.50;;;8.30;99.90;;;;;;5039704;28;20050;-78
2022/10/03 02:46:46;;;;;;;1.60;0.40;;;8.30;99.90;;;;;;5026479;28;20021;-79
2022/10/03 02:49:27;;;;;;;4.53;0.90;;;8.20;99.90;;;;;;5026523;28;20519;-78
2022/10/03 02:52:39;;;;;;;3.67;0.50;;;8.20;99.90;;;;;;5029177;28;20036;-79
2022/10/03 02:55:23;;;;;;;2.38;0.60;;;8.30;99.90;;;;;;5024563;28;20502;-79
2022/10/03 02:58:27;;;;;;;4.57;0.80;;;8.30;99.90;;;;;;5041661;28;20029;-79
2022/10/03 03:01:32;;;;;;;3.47;0.50;;;8.20;99.90;;;;;;5027042;28;20116;-78
2022/10/03 03:04:16;;;;;;;2.50;0.50;;;8.20;99.90;;;;;;5025768;28;20029;-79
2022/10/03 03:07:00;;;;;;;2.15;0.50;;;8.10;99.90;;;;;;5027576;28;20531;-79
2022/10/03 03:09:48;;;;;;;2.05;0.80;;;8.10;99.90;;;;;;5025307;28;20482;-78
2022/10/03 03:12:25;;;;;;;3.58;0.60;;;8.20;99.90;;;;;;5026472;28;20146;-79
2022/10/03 03:15:07;;;;;;;2.72;0.40;;;8.20;99.90;;;;;;5035237;28;20037;-79
2022/10/03 03:17:38;;;;;;;2.03;0.50;;;8.10;99.90;;;;;;5046855;28;20029;-78
2022/10/03 03:20:29;;;;;;;4.03;0.77;;;8.10;99.90;;;;;;5031420;28;20433;-79
2022/10/03 03:22:57;;;;;;;;;;;8.10;99.90;;;;;;5046566;28;20033;-78
2022/10/03 03:25:29;;;;;;;1.48;0.47;;;8.10;99.90;;;;;;5024708;28;19923;-79
2022/10/03 03:28:00;;;;;;;2.33;0.40;;;8.00;99.90;;;;;;5031210;28;20021;-78
2022/10/03 03:30:59;;;;;;;3.78;0.50;;;8.00;99.90;;;;;;5046081;28;20044;-78
2022/10/03 03:33:37;;;;;;;2.47;0.40;;;8.00;99.90;;;;;;5027310;28;20140;-78
2022/10/03 03:36:24;;;;;;;2.22;0.50;;;8.10;99.90;;;;;;5030146;28;20416;-79
2022/10/03 03:38:50;;;;;;;3.17;0.60;;;8.10;99.90;;;;;;5043176;28;20068;-78
2022/10/03 03:41:33;;;;;;;2.28;0.60;;;8.10;99.90;;;;;;5030830;28;20017;-79
2022/10/03 03:44:17;;;;;;;4.30;0.60;;;8.10;99.90;;;;;;5028201;28;20044;-79
2022/10/03 03:46:52;;;;;;;2.03;0.47;;;7.90;99.90;;;;;;5030525;28;20021;-79
2022/10/03 03:49:36;;;;;;;1.80;0.45;;;8.00;99.90;;;;;;5028764;28;20489;-78
2022/10/03 03:52:27;;;;;;;2.13;0.60;;;8.00;99.90;;;;;;5031972;28;20612;-78
2022/10/03 03:54:58;;;;;;;3.35;0.60;;;8.00;99.90;;;;;;5030447;28;20454;-79
2022/10/03 03:57:50;;;;;;;3.75;0.70;;;8.00;99.90;;;;;;5035456;28;20033;-79
2022/10/03 04:00:30;;;;;;;2.60;0.50;;;7.90;99.90;;;;;;5026666;28;20116;-78
2022/10/03 04:03:17;;;;;;;1.95;0.50;;;7.90;99.90;;;;;;5030139;28;20033;-78
2022/10/03 04:05:56;;;;;;;2.15;0.52;;;7.80;99.90;;;;;;5012628;28;20257;-78
2022/10/03 04:08:58;;;;;;;2.75;0.50;;;7.90;99.90;;;;;;5029284;28;20028;-78
2022/10/03 04:11:40;;;;;;;3.63;0.60;;;8.00;99.90;;;;;;5028301;28;20034;-79
2022/10/03 04:14:40;;;;;;;2.17;0.57;;;7.90;99.90;;;;;;5030035;28;20025;-78
2022/10/03 04:20:55;;;;;;;1.88;0.60;;;7.80;99.90;;;;;;5029706;28;20048;-78
2022/10/03 04:23:51;;;;;;;1.90;0.45;;;7.80;99.90;;;;;;5043602;28;20040;-79
2022/10/03 04:26:40;;;;;;;3.13;0.77;;;7.60;99.90;;;;;;5026864;28;20056;-79
2022/10/03 04:29:26;;;;;;;2.45;0.50;;;7.80;99.90;;;;;;5044369;28;20076;-78
2022/10/03 04:32:33;;;;;;;2.15;0.40;;;7.80;99.90;;;;;;5029231;28;20465;-79
2022/10/03 04:35:31;;;;;;;2.35;0.52;;;7.80;99.90;;;;;;5028899;28;20075;-78
2022/10/03 04:38:05;;;;;;;1.83;0.50;;;7.70;99.90;;;;;;4988608;28;20372;-78
2022/10/03 04:40:58;;;;;;;1.42;0.40;;;7.60;99.90;;;;;;4988094;28;20067;-78
2022/10/03 04:43:52;;;;;;;4.35;0.60;;;7.50;99.90;;;;;;4968217;28;20218;-79
2022/10/03 04:46:55;;;;;;;4.68;0.60;;;7.60;99.90;;;;;;4971874;28;20438;-79
2022/10/03 04:49:46;;;;;;;1.58;0.50;;;7.50;99.90;;;;;;4986262;28;20022;-78
2022/10/03 04:52:24;;;;;;;3.63;0.60;;;7.70;99.90;;;;;;4987176;28;20042;-79
2022/10/03 04:55:05;;;;;;;3.50;0.52;;;7.60;99.90;;;;;;4956531;28;20045;-78
2022/10/03 04:57:31;;;;;;;1.30;0.50;;;7.50;99.90;;;;;;4977959;28;20483;-79
2022/10/03 05:00:28;;;;;;;3.10;0.60;;;7.50;99.90;;;;;;4976909;28;20137;-78
2022/10/03 05:03:13;;;;;;;4.07;0.70;;;7.70;99.90;;;;;;4987133;28;20430;-78
2022/10/03 05:05:49;;;;;;;2.08;0.60;;;7.60;99.90;;;;;;4971700;28;20038;-79
2022/10/03 05:08:28;;;;;;;3.58;0.55;;;7.50;99.90;;;;;;4986964;28;20093;-79
2022/10/03 05:11:04;;;;;;;1.15;0.40;;;7.50;99.90;;;;;;4987145;28;20105;-78
2022/10/03 05:13:53;;;;;;;2.08;0.50;;;7.50;99.90;;;;;;5011698;28;20719;-79
2022/10/03 05:16:37;;;;;;;2.55;0.60;;;7.50;99.90;;;;;;5011222;28;20627;-79
2022/10/03 05:19:43;;;;;;;1.95;0.50;;;7.80;99.90;;;;;;5027234;28;20030;-79
2022/10/03 05:23:04;;;;;;;2.22;0.60;;;7.70;99.90;;;;;;5026938;28;20087;-79
2022/10/03 05:26:01;;;;;;;2.47;0.60;;;7.70;99.90;;;;;;5013955;28;20029;-79
2022/10/03 05:28:46;;;;;;;4.03;0.90;;;7.60;99.90;;;;;;5027666;28;20029;-78
2022/10/03 05:31:17;;;;;;;5.03;0.90;;;8.10;99.90;;;;;;5024973;28;20457;-78
2022/10/03 05:34:10;;;;;;;4.88;1.35;;;8.20;99.90;;;;;;5028435;28;20057;-78
2022/10/03 05:37:17;;;;;;;4.22;1.23;;;8.20;99.90;;;;;;5028921;28;20064;-78
2022/10/03 05:39:55;;;;;;;7.20;1.45;;;8.20;99.90;;;;;;5026620;28;20474;-78
2022/10/03 05:42:42;;;;;;;4.20;0.80;;;8.10;99.90;;;;;;5043090;28;20517;-78
2022/10/03 05:45:45;;;;;;;1.85;0.60;;;8.00;99.90;;;;;;5042507;28;20493;-79
2022/10/03 05:48:49;;;;;;;4.50;1.10;;;8.10;99.90;;;;;;5033721;28;20056;-78
2022/10/03 05:51:32;;;;;;;2.20;0.57;;;8.30;99.90;;;;;;5027232;28;20024;-78
2022/10/03 05:54:26;;;;;;;3.35;1.20;;;8.30;99.90;;;;;;5010473;28;20124;-78
2022/10/03 05:57:33;;;;;;;2.47;0.70;;;8.30;99.90;;;;;;5030322;28;20041;-78
2022/10/03 06:00:14;;;;;;;3.95;0.85;;;8.20;99.90;;;;;;5009439;28;20033;-79
2022/10/03 06:02:54;;;;;;;3.55;1.00;;;8.10;99.90;;;;;;5026583;28;20040;-78
2022/10/03 06:05:28;;;;;;;;;;;7.90;99.90;;;;;;5042893;28;20047;-79
2022/10/03 06:08:20;;;;;;;3.15;0.70;;;7.90;99.90;;;;;;5041752;28;19909;-78
2022/10/03 06:11:18;;;;;;;4.13;0.70;;;7.90;99.90;;;;;;5027815;28;20400;-78
2022/10/03 06:13:47;;;;;;;2.17;0.60;;;8.00;99.90;;;;;;5026354;28;20176;-79
2022/10/03 06:16:39;;;;;;;2.80;0.50;;;8.10;99.90;;;;;;5029637;28;20057;-78
2022/10/03 06:19:14;;;;;;;4.78;0.57;;;8.30;99.90;;;;;;5029102;28;20052;-80
2022/10/03 06:21:48;;;;;;;3.15;0.57;;;8.40;99.90;;;;;;5024698;28;20112;-78
2022/10/03 06:24:26;;;;;;;4.13;0.80;;;8.50;99.90;;;;;;5026835;28;20040;-80
2022/10/03 06:27:03;;;;;;;2.95;0.80;;;8.60;99.90;;;;;;5025257;28;20082;-78
2022/10/03 06:29:51;;;;;;;3.78;0.93;;;8.50;99.90;;;;;;5026999;28;20378;-79
2022/10/03 06:32:44;;;;;;;4.03;1.00;;;8.60;99.90;;;;;;5025740;28;20053;-79
2022/10/03 06:35:38;;;;;;;5.68;0.88;;;8.60;99.90;;;;;;5026309;28;20532;-78
2022/10/03 06:38:46;;;;;;;3.92;0.88;;;8.60;99.90;;;;;;5025554;28;20025;-79
2022/10/03 06:41:31;;;;;;;3.63;0.80;;;8.70;99.90;;;;;;5039546;28;20080;-78
2022/10/03 06:44:16;;;;;;;5.80;1.65;;;8.60;99.90;;;;;;5040054;28;20609;-79
2022/10/03 06:47:00;;;;;;;3.80;1.15;;;8.70;99.90;;;;;;5042735;28;20029;-79
2022/10/03 06:49:35;;;;;;;5.05;1.00;;;8.70;99.90;;;;;;5041478;28;20056;-79
2022/10/03 06:52:10;;;;;;;2.22;0.60;;;8.70;99.90;;;;;;5022856;28;20101;-78
2022/10/03 06:55:18;;;;;;;6.07;0.80;;;8.60;99.90;;;;;;5024619;28;20029;-79
2022/10/03 06:58:22;;;;;;;3.60;0.70;;;8.80;99.90;;;;;;5026152;28;20108;-79
2022/10/03 07:00:56;;;;;;;4.80;0.95;;;8.90;99.90;;;;;;5024838;28;20034;-78
2022/10/03 07:04:02;;;;;;;2.55;1.02;;;9.00;99.90;;;;;;5024866;28;20063;-78
2022/10/03 07:07:08;;;;;;;3.88;0.70;;;9.10;99.90;;;;;;5026425;28;20372;-79
2022/10/03 07:09:56;;;;;;;4.18;0.90;;;9.10;99.90;;;;;;5025259;28;20026;-78
2022/10/03 07:12:43;;;;;;;8.77;1.65;;;9.10;99.90;;;;;;5023538;28;20033;-79
2022/10/03 07:15:13;;;;;;;4.95;1.02;;;9.40;99.90;;;;;;5025397;28;20034;-78
2022/10/03 07:17:57;;;;;;;;;;;9.40;99.90;;;;;;5009824;28;20381;-78
2022/10/03 07:21:03;;;;;;;4.57;1.05;;;9.50;99.90;;;;;;5025991;28;19992;-78
2022/10/03 07:23:44;;;;;;;4.75;1.00;;;9.60;99.90;;;;;;5010690;28;20125;-81
2022/10/03 07:26:43;;;;;;;3.83;1.25;;;9.70;99.90;;;;;;4988236;28;20034;-79
2022/10/03 07:29:40;;;;;;;6.17;1.50;;;9.90;99.90;;;;;;5008202;28;20060;-79
2022/10/03 07:32:28;;;;;;;3.85;0.80;;;10.10;99.90;;;;;;5014394;28;20082;-79
2022/10/03 07:38:56;;;;;;;6.15;1.20;;;10.20;99.90;;;;;;4999496;28;20038;-79
2022/10/03 07:41:40;;;;;;;6.05;1.85;;;10.40;99.90;;;;;;5006348;28;20486;-79
2022/10/03 07:44:30;;;;;;;5.60;1.40;;;10.50;99.90;;;;;;5005495;28;20097;-79
2022/10/03 07:47:25;;;;;;;4.47;1.45;;;10.60;99.90;;;;;;5001547;28;20910;-79
2022/10/03 07:50:10;;;;;;;6.30;1.95;;;10.80;99.90;;;;;;5013795;28;20049;-78
2022/10/03 07:53:03;;;;;;;5.88;2.05;;;11.00;99.90;;;;;;5003219;28;20050;-78
2022/10/03 07:55:39;;;;;;;4.88;1.63;;;11.00;99.90;;;;;;5008769;28;20288;-79
2022/10/03 07:58:25;;;;;;;11.52;2.67;;;11.20;99.90;;;;;;4996548;28;20423;-79
2022/10/03 08:01:12;;;;;;;5.35;1.77;;;11.30;99.90;;;;;;5025625;28;20033;-79
2022/10/03 08:03:58;;;;;;;3.65;1.30;;;11.50;99.90;;;;;;5029440;28;20083;-80
2022/10/03 08:06:49;;;;;;;6.85;2.05;;;11.50;99.90;;;;;;5029382;28;20478;-79
2022/10/03 08:09:30;;;;;;;4.90;1.30;;;11.80;99.90;;;;;;5029369;28;20025;-78
2022/10/03 08:12:12;;;;;;;6.38;1.63;;;11.90;99.90;;;;;;5029712;28;20029;-79
2022/10/03 08:15:07;;;;;;;7.97;1.80;;;12.00;99.90;;;;;;5032887;28;20034;-78
2022/10/03 08:17:54;;;;;;;7.53;2.10;;;12.10;99.90;;;;;;5028574;28;20033;-79
2022/10/03 08:20:41;;;;;;;9.45;2.30;;;12.20;99.90;;;;;;5043355;28;20025;-78
2022/10/03 08:23:52;;;;;;;5.32;1.48;;;12.40;99.90;;;;;;5042529;28;20037;-79
2022/10/03 08:26:21;;;;;;;3.00;1.05;;;12.40;99.90;;;;;;5023953;28;20029;-79
2022/10/03 08:29:26;;;;;;;5.40;1.08;;;12.60;99.90;;;;;;5044957;28;20478;-79
2022/10/03 08:32:07;;;;;;;4.82;1.27;;;13.00;99.90;;;;;;5012034;28;20029;-79
2022/10/03 08:34:44;;;;;;;4.03;0.70;;;13.10;99.90;;;;;;5027814;28;20112;-78
2022/10/03 08:37:29;;;;;;;3.75;0.70;;;13.40;99.90;;;;;;5011384;28;20067;-79
2022/10/03 08:40:30;;;;;;;4.10;0.60;;;13.60;99.90;;;;;;5025684;28;20022;-80
2022/10/03 08:43:21;;;;;;;3.40;0.90;;;13.50;99.90;;;;;;5030566;28;20103;-80
2022/10/03 08:45:50;;;;;;;4.40;0.80;;;13.30;99.90;;;;;;5011606;28;20033;-79
2022/10/03 08:48:38;;;;;;;3.92;0.98;;;13.50;99.90;;;;;;5031658;28;20431;-79
2022/10/03 08:51:33;;;;;;;5.32;0.90;;;13.60;99.90;;;;;;5029386;28;20021;-79
2022/10/03 08:54:20;;;;;;;4.75;0.82;;;13.70;99.90;;;;;;5043879;28;20038;-79
2022/10/03 08:56:52;;;;;;;3.65;0.90;;;13.80;99.90;;;;;;5026287;28;20512;-80
2022/10/03 08:59:55;;;;;;;5.95;0.90;;;14.10;99.90;;;;;;5011110;28;20443;-80
2022/10/03 09:02:59;;;;;;;3.17;0.63;;;13.90;99.90;;;;;;5027419;28;20033;-80
2022/10/03 09:05:46;;;;;;;6.00;1.33;;;14.20;99.90;;;;;;5031094;28;20478;-80
2022/10/03 09:08:27;;;;;;;4.45;0.80;;;14.10;99.90;;;;;;5030797;28;20034;-80
2022/10/03 09:11:02;;;;;;;4.78;0.63;;;14.10;99.90;;;;;;5028056;28;20053;-80
2022/10/03 09:13:48;;;;;;;5.88;0.70;;;14.50;99.90;;;;;;5027349;28;20513;-79
2022/10/03 09:16:31;;;;;;;3.13;0.60;;;14.30;99.90;;;;;;5042814;28;20055;-81
2022/10/03 09:19:01;;;;;;;5.90;0.50;;;14.60;99.90;;;;;;5027670;28;20092;-80
2022/10/03 09:21:36;;;;;;;;;;;15.00;99.90;;;;;;5043966;28;20033;-79
2022/10/03 09:24:27;;;;;;;3.63;0.40;;;15.10;99.90;;;;;;5030482;28;20007;-80
2022/10/03 09:27:25;;;;;;;4.07;0.43;;;15.20;99.90;;;;;;5027813;28;20488;-80
2022/10/03 09:30:33;;;;;;;3.03;0.30;;;15.20;99.90;;;;;;5042770;28;20493;-80
2022/10/03 09:33:14;;;;;;;2.38;0.32;;;15.70;99.90;;;;;;5026839;28;20026;-80
2022/10/03 09:35:55;;;;;;;2.72;0.30;;;15.80;99.90;;;;;;5008691;28;20046;-81
2022/10/03 09:38:42;;;;;;;4.07;0.98;;;15.90;99.90;;;;;;5042710;28;20158;-81
2022/10/03 09:41:33;;;;;;;3.20;0.40;;;15.50;99.90;;;;;;5010482;28;20056;-80
2022/10/03 09:44:21;;;;;;;3.75;0.20;;;15.60;99.90;;;;;;5026760;28;20084;-81
2022/10/03 09:47:38;;;;;;;2.53;0.40;;;16.00;99.90;;;;;;5027073;28;20030;-81
2022/10/03 09:50:22;;;;;;;0.90;0.10;;;16.30;99.90;;;;;;5026349;28;20038;-81
2022/10/03 09:53:17;;;;;;;0.75;0.10;;;16.50;99.90;;;;;;5027932;28;20033;-81
2022/10/03 09:55:52;;;;;;;1.00;0.20;;;16.20;99.90;;;;;;5011661;28;20060;-81
2022/10/03 09:59:08;;;;;;;2.28;0.22;;;16.40;99.90;;;;;;5012044;28;20034;-81
2022/10/03 10:02:14;;;;;;;3.78;0.30;;;16.70;99.90;;;;;;4997748;28;20525;-81
2022/10/03 10:04:59;;;;;;;1.73;0.20;;;16.70;99.90;;;;;;5016291;28;20409;-81
2022/10/03 10:08:01;;;;;;;3.15;0.47;;;16.90;99.90;;;;;;5005371;28;20038;-81
2022/10/03 10:10:54;;;;;;;5.45;0.32;;;16.50;99.90;;;;;;5013665;28;20087;-81
2022/10/03 10:13:28;;;;;;;3.53;0.50;;;16.50;99.90;;;;;;4989317;28;20104;-81
2022/10/03 10:16:15;;;;;;;4.18;0.20;;;16.30;99.90;;;;;;5003809;28;20425;-80
2022/10/03 10:19:16;;;;;;;1.80;0.20;;;16.50;99.90;;;;;;5003947;28;20026;-81
2022/10/03 10:22:10;;;;;;;3.40;0.20;;;16.50;99.90;;;;;;4994140;28;20486;-81
2022/10/03 10:24:50;;;;;;;1.42;0.10;;;16.60;99.90;;;;;;4996543;28;20033;-81
2022/10/03 10:27:22;;;;;;;1.73;0.20;;;16.90;99.90;;;;;;4996219;28;20056;-81
2022/10/03 10:29:47;;;;;;;3.65;0.20;;;16.80;99.90;;;;;;5011762;28;20069;-82
2022/10/03 10:32:22;;;;;;;3.38;0.40;;;16.70;99.90;;;;;;5005336;28;20060;-81
2022/10/03 10:35:07;;;;;;;2.47;0.20;;;16.40;99.90;;;;;;5009717;28;20056;-80
2022/10/03 10:37:53;;;;;;;2.90;0.22;;;16.20;99.90;;;;;;5009545;28;20029;-81
2022/10/03 10:40:59;;;;;;;1.92;0.20;;;16.30;99.90;;;;;;5041452;28;20111;-80
2022/10/03 10:43:47;;;;;;;2.42;0.20;;;16.30;99.90;;;;;;5025641;28;20064;-80
2022/10/03 10:46:31;;;;;;;1.92;0.10;;;16.30;99.90;;;;;;5009356;28;20442;-81
2022/10/03 10:49:19;;;;;;;1.90;0.17;;;16.70;99.90;;;;;;5027325;28;20508;-78
2022/10/03 10:51:44;;;;;;;1.77;0.20;;;16.70;99.90;;;;;;5027662;28;20022;-81
2022/10/03 10:54:34;;;;;;;0.10;0.00;;;16.70;99.90;;;;;;5041771;28;20032;-80
2022/10/03 10:57:15;;;;;;;4.20;0.20;;;16.80;99.90;;;;;;5029099;28;20048;-81
2022/10/03 11:00:04;;;;;;;3.13;0.30;;;16.50;99.90;;;;;;5042751;28;20091;-80
2022/10/03 11:03:07;;;;;;;3.58;0.20;;;16.60;99.90;;;;;;5022323;28;20029;-80
2022/10/03 11:06:00;;;;;;;2.97;0.20;;;16.30;99.90;;;;;;5013803;28;20466;-80
2022/10/03 11:08:45;;;;;;;3.88;0.30;;;16.00;99.90;;;;;;5025140;28;20428;-80
2022/10/03 11:11:29;;;;;;;1.60;0.20;;;16.00;99.90;;;;;;5024526;28;20029;-80
2022/10/03 11:14:19;;;;;;;5.78;0.80;;;16.00;99.90;;;;;;5025812;28;20113;-80
2022/10/03 11:17:16;;;;;;;3.70;0.40;;;15.80;99.90;;;;;;5029501;28;20033;-80
2022/10/03 11:20:09;;;;;;;5.95;0.40;;;15.90;99.90;;;;;;5008930;28;20632;-80
2022/10/03 11:22:53;;;;;;;2.50;0.30;;;15.90;99.90;;;;;;5011647;28;20033;-80
2022/10/03 11:25:28;;;;;;;2.58;0.30;;;16.00;99.90;;;;;;5024649;28;20026;-79
2022/10/03 11:28:10;;;;;;;3.53;0.40;;;16.20;99.90;;;;;;5025187;28;20078;-81
2022/10/03 11:30:56;;;;;;;3.22;0.60;;;16.20;99.90;;;;;;5042149;28;20021;-80
2022/10/03 11:33:25;;;;;;;3.38;0.20;;;16.40;99.90;;;;;;5024875;28;20026;-81
2022/10/03 11:36:16;;;;;;;5.35;0.20;;;16.50;99.90;;;;;;5025683;28;20042;-81
2022/10/03 11:39:02;;;;;;;5.30;0.30;;;16.50;99.90;;;;;;5031506;28;20032;-80
2022/10/03 11:42:09;;;;;;;3.90;0.30;;;16.40;99.90;;;;;;5033804;28;20053;-79
2022/10/03 11:44:44;;;;;;;2.70;0.20;;;16.30;99.90;;;;;;5030311;28;20395;-80
2022/10/03 11:47:38;;;;;;;2.50;0.20;;;16.50;99.90;;;;;;5028769;28;20480;-79
2022/10/03 11:50:31;;;;;;;4.57;0.40;;;16.40;99.90;;;;;;5044091;28;20128;-81
2022/10/03 11:53:00;;;;;;;4.57;0.20;;;16.50;99.90;;;;;;5045224;28;20436;-82
2022/10/03 11:55:42;;;;;;;5.45;0.40;;;16.50;99.90;;;;;;5023884;28;20077;-81
2022/10/03 11:58:30;;;;;;;2.00;0.28;;;16.60;99.90;;;;;;5013255;28;20032;-80
2022/10/03 12:01:16;;;;;;;2.40;0.20;;;16.50;99.90;;;;;;5033977;28;20065;-80
2022/10/03 12:03:57;;;;;;;3.78;0.30;;;16.60;99.90;;;;;;5023609;28;20542;-80
2022/10/03 12:09:45;;;;;;;4.05;0.20;;;16.60;99.90;;;;;;5043600;28;20046;-80
2022/10/03 12:12:27;;;;;;;2.20;0.20;;;16.80;99.90;;;;;;5044514;28;20026;-80
2022/10/03 12:14:56;;;;;;;3.22;0.30;;;17.10;99.90;;;;;;5028058;28;20033;-80
2022/10/03 12:17:33;;;;;;;;;;;17.00;99.90;;;;;;5044101;28;20509;-81
2022/10/03 12:20:19;;;;;;;1.40;0.28;;;17.10;99.90;;;;;;5044961;28;19913;-80
2022/10/03 12:22:55;;;;;;;2.40;0.30;;;16.90;99.90;;;;;;5027518;28;20496;-81
2022/10/03 12:25:23;;;;;;;4.85;0.40;;;16.90;99.90;;;;;;5028881;28;20040;-80
2022/10/03 12:28:14;;;;;;;3.85;0.30;;;16.80;99.90;;;;;;5028587;28;20037;-81
2022/10/03 12:30:59;;;;;;;3.60;0.40;;;16.70;99.90;;;;;;5032563;28;20021;-80
2022/10/03 12:33:56;;;;;;;3.00;0.50;;;16.60;99.90;;;;;;5035743;28;20091;-80
2022/10/03 12:36:29;;;;;;;4.32;0.35;;;16.60;99.90;;;;;;5033770;28;20423;-81
2022/10/03 12:39:13;;;;;;;2.97;0.40;;;16.60;99.90;;;;;;5044834;28;20044;-80
2022/10/03 12:41:39;;;;;;;2.67;0.20;;;16.60;99.90;;;;;;5027655;28;20451;-80
2022/10/03 12:44:30;;;;;;;3.38;0.22;;;16.50;99.90;;;;;;5009944;28;20077;-80
2022/10/03 12:47:20;;;;;;;1.20;0.20;;;16.50;99.90;;;;;;5027467;28;20132;-81
2022/10/03 12:49:55;;;;;;;2.65;0.30;;;16.60;99.90;;;;;;5027658;28;20044;-81
2022/10/03 12:52:28;;;;;;;4.40;0.30;;;16.50;99.90;;;;;;5015178;28;20029;-80
2022/10/03 12:55:09;;;;;;;3.60;0.25;;;16.40;99.90;;;;;;5044200;28;20033;-81
2022/10/03 12:57:43;;;;;;;4.72;0.30;;;16.40;99.90;;;;;;5031654;28;20515;-80
2022/10/03 13:00:19;;;;;;;7.57;0.30;;;16.40;99.90;;;;;;5028737;28;20546;-79
2022/10/03 13:03:05;;;;;;;5.55;0.30;;;16.30;99.90;;;;;;5032837;28;20038;-80
2022/10/03 13:05:31;;;;;;;2.38;0.20;;;16.30;99.90;;;;;;5029017;28;20017;-81
2022/10/03 13:08:06;;;;;;;2.75;0.20;;;16.30;99.90;;;;;;5026316;28;20367;-80
2022/10/03 13:10:40;;;;;;;3.55;0.20;;;16.30;99.90;;;;;;5025770;28;20068;-79
2022/10/03 13:13:19;;;;;;;1.85;0.20;;;16.40;99.90;;;;;;5029088;28;20057;-80
2022/10/03 13:16:20;;;;;;;1.38;0.20;;;16.40;99.90;;;;;;5027772;28;20033;-80
2022/10/03 13:18:52;;;;;;;2.63;0.30;;;16.50;99.90;;;;;;5040317;28;20446;-80
2022/10/03 13:21:51;;;;;;;2.17;0.20;;;16.50;99.90;;;;;;5043208;28;20036;-80
2022/10/03 13:24:39;;;;;;;3.75;0.30;;;16.50;99.90;;;;;;5025646;28;20029;-81
2022/10/03 13:27:31;;;;;;;3.50;0.20;;;16.80;99.90;;;;;;5026678;28;20040;-80
2022/10/03 13:30:17;;;;;;;2.88;0.30;;;17.10;99.90;;;;;;5030529;28;20064;-80
2022/10/03 13:33:21;;;;;;;1.73;0.20;;;17.10;99.90;;;;;;5010889;28;20556;-80
2022/10/03 13:36:11;;;;;;;1.30;0.10;;;17.00;99.90;;;;;;5015398;28;20521;-80
2022/10/03 13:39:05;;;;;;;;;;;16.90;99.90;;;;;;5032683;28;20504;-80
2022/10/03 13:41:58;;;;;;;3.45;0.20;;;16.80;99.90;;;;;;5024029;28;19909;-80
2022/10/03 13:44:54;;;;;;;2.83;0.20;;;16.60;99.90;;;;;;5042270;28;20041;-80
2022/10/03 13:47:44;;;;;;;1.70;0.10;;;16.50;99.90;;;;;;5024560;28;20091;-80
2022/10/03 13:50:19;;;;;;;4.22;0.30;;;16.60;99.90;;;;;;5027077;28;20466;-81
2022/10/03 13:53:19;;;;;;;3.70;0.20;;;16.60;99.90;;;;;;5041714;28;20463;-81
2022/10/03 13:55:57;;;;;;;7.30;0.30;;;16.60;99.90;;;;;;4989562;28;20045;-80
2022/10/03 13:58:47;;;;;;;4.55;0.47;;;16.70;99.90;;;;;;4988577;28;20080;-81
2022/10/03 14:01:32;;;;;;;2.85;0.20;;;16.70;99.90;;;;;;5005223;28;20114;-80
2022/10/03 14:04:19;;;;;;;1.00;0.10;;;16.70;99.90;;;;;;4984784;28;20026;-80
2022/10/03 14:07:11;;;;;;;3.03;0.20;;;16.70;99.90;;;;;;5005993;28;20506;-80
2022/10/03 14:10:08;;;;;;;1.65;0.20;;;16.70;99.90;;;;;;4989038;28;20029;-80
2022/10/03 14:13:19;;;;;;;3.60;0.20;;;16.80;99.90;;;;;;4992491;28;20525;-80
2022/10/03 14:15:54;;;;;;;1.80;0.20;;;16.80;99.90;;;;;;4995116;28;20049;-80
2022/10/03 14:18:44;;;;;;;3.38;0.20;;;16.80;99.90;;;;;;4988192;28;20041;-80
2022/10/03 14:21:45;;;;;;;3.72;0.30;;;16.80;99.90;;;;;;5004909;28;20037;-80
2022/10/03 14:24:31;;;;;;;2.70;0.30;;;16.70;99.90;;;;;;4987310;28;20034;-80
2022/10/03 14:27:35;;;;;;;1.95;0.20;;;16.60;99.90;;;;;;5005131;28;20038;-81
2022/10/03 14:30:15;;;;;;;3.17;0.20;;;16.60;99.90;;;;;;4971343;28;20022;-80
2022/10/03 14:33:16;;;;;;;3.92;0.20;;;16.60;99.90;;;;;;4938804;28;20473;-80
2022/10/03 14:36:08;;;;;;;1.67;0.20;;;16.60;99.90;;;;;;4931296;28;20039;-80
2022/10/03 14:39:01;;;;;;;3.53;0.30;;;16.70;99.90;;;;;;4954015;28;20267;-78
2022/10/03 14:41:39;;;;;;;2.05;0.30;;;16.60;99.90;;;;;;4951219;28;20039;-81
2022/10/03 14:44:28;;;;;;;2.95;0.10;;;16.60;99.90;;;;;;4952265;28;20495;-81
2022/10/03 14:47:01;;;;;;;3.03;0.20;;;16.60;99.90;;;;;;4932306;28;20119;-81